Time;durP1;ratioP1;P1;durP2;ratioP2;P2;SDS_P1;SDS_P2;PMS_P1;PMS_P2;Temp;Humidity;BMP_temperature;BMP_pressure;BME280_temperature;BME280_humidity;BME280_pressure;Samples;Min_cycle;Max_cycle;Signal;HPM_P1;HPM_P2
2021/06/30 04:30:50;;;;;;;1.00;0.60;;;14.30;99.90;;;;;;6096750;23;20362;31
2021/06/30 04:33:19;;;;;;;3.70;0.53;;;14.30;99.90;;;;;;4981947;28;20556;-81
2021/06/30 04:35:44;;;;;;;0.50;0.50;;;14.30;99.90;;;;;;4993122;28;20517;-78
2021/06/30 04:38:10;;;;;;;0.50;0.50;;;14.20;99.90;;;;;;4992914;28;20558;-78
2021/06/30 04:40:35;;;;;;;0.90;0.50;;;14.20;99.90;;;;;;4993021;28;20242;-78
2021/06/30 04:43:01;;;;;;;0.40;0.40;;;14.30;99.90;;;;;;5012645;28;20186;-79
2021/06/30 04:45:27;;;;;;;0.60;0.50;;;14.20;99.90;;;;;;5013481;28;20206;-79
2021/06/30 04:47:52;;;;;;;0.60;0.50;;;14.30;99.90;;;;;;5013397;28;20183;-78
2021/06/30 04:50:18;;;;;;;2.40;0.50;;;14.30;99.90;;;;;;5012476;28;20605;-78
2021/06/30 04:52:43;;;;;;;1.37;0.50;;;14.40;99.90;;;;;;5021196;28;20202;-78
2021/06/30 04:55:09;;;;;;;2.73;0.60;;;14.50;99.90;;;;;;5012859;28;20631;-78
2021/06/30 04:57:36;;;;;;;0.70;0.50;;;14.50;99.90;;;;;;5011887;28;20175;-78
2021/06/30 05:00:04;;;;;;;1.27;0.50;;;14.50;99.90;;;;;;5012096;28;20480;-77
2021/06/30 05:02:30;;;;;;;0.60;0.60;;;14.60;99.90;;;;;;5010845;28;20477;-75
2021/06/30 05:04:55;;;;;;;1.53;0.50;;;14.60;99.90;;;;;;5008170;28;20453;-76
2021/06/30 05:07:21;;;;;;;1.73;0.60;;;14.60;99.90;;;;;;5011740;28;20186;-76
2021/06/30 05:09:46;;;;;;;0.50;0.40;;;14.70;99.90;;;;;;5011582;28;20617;-76
2021/06/30 05:12:12;;;;;;;0.43;0.43;;;14.70;99.90;;;;;;5011530;28;20277;-76
2021/06/30 05:14:37;;;;;;;2.30;0.70;;;14.70;99.90;;;;;;5011728;28;20683;-76
2021/06/30 05:17:03;;;;;;;1.27;0.50;;;14.70;99.90;;;;;;5011618;28;20183;-71
2021/06/30 05:19:29;;;;;;;0.67;0.47;;;14.80;99.90;;;;;;5011310;28;20177;-70
2021/06/30 05:21:56;;;;;;;0.50;0.50;;;14.90;99.90;;;;;;5011492;28;20214;-70
2021/06/30 05:24:23;;;;;;;0.50;0.50;;;15.00;99.90;;;;;;5011671;28;20440;-70
2021/06/30 05:26:49;;;;;;;0.50;0.50;;;15.20;99.90;;;;;;5012597;28;20496;-71
2021/06/30 05:29:14;;;;;;;2.53;0.70;;;15.30;99.90;;;;;;5012294;28;20456;-70
2021/06/30 05:31:40;;;;;;;0.40;0.40;;;15.40;99.90;;;;;;5011671;28;20657;-71
2021/06/30 05:34:05;;;;;;;0.40;0.40;;;15.60;99.90;;;;;;5011892;28;20579;-71
2021/06/30 05:36:31;;;;;;;0.50;0.40;;;15.70;99.90;;;;;;5012292;28;20179;-70
2021/06/30 05:38:56;;;;;;;0.50;0.50;;;16.00;99.90;;;;;;5012157;28;20648;-70
2021/06/30 05:41:22;;;;;;;2.10;0.60;;;16.20;99.90;;;;;;5011344;28;20245;-71
2021/06/30 05:43:47;;;;;;;1.40;0.60;;;16.30;99.90;;;;;;5010943;28;20266;-71
2021/06/30 05:46:13;;;;;;;1.93;0.87;;;16.40;99.90;;;;;;5011132;28;20178;-72
2021/06/30 05:48:38;;;;;;;1.57;1.10;;;16.60;99.90;;;;;;5011144;28;20207;-72
2021/06/30 05:51:06;;;;;;;1.67;1.00;;;16.70;99.90;;;;;;5010926;28;20195;-71
2021/06/30 05:53:31;;;;;;;1.40;0.63;;;16.80;99.90;;;;;;5010787;28;20198;-71
2021/06/30 05:55:57;;;;;;;0.50;0.50;;;16.90;99.90;;;;;;5010818;28;20414;-71
2021/06/30 05:58:22;;;;;;;0.70;0.70;;;16.70;99.90;;;;;;5011077;28;20185;-71
2021/06/30 06:00:48;;;;;;;0.70;0.70;;;16.70;99.90;;;;;;5010964;28;20560;-71
2021/06/30 06:03:13;;;;;;;0.67;0.63;;;16.80;99.90;;;;;;5010947;28;20178;-71
2021/06/30 06:05:39;;;;;;;1.00;0.70;;;17.00;99.90;;;;;;5011199;28;20171;-71
2021/06/30 06:08:05;;;;;;;0.50;0.50;;;17.00;99.90;;;;;;5010939;28;20171;-71
2021/06/30 06:10:30;;;;;;;3.37;1.17;;;17.00;99.90;;;;;;5013361;28;20170;-71
2021/06/30 06:12:56;;;;;;;0.50;0.50;;;17.10;99.90;;;;;;5014011;28;20222;-72
2021/06/30 06:15:21;;;;;;;0.60;0.60;;;17.10;99.90;;;;;;5014391;28;20210;-71
2021/06/30 06:17:47;;;;;;;1.57;0.53;;;17.10;99.90;;;;;;5011528;28;20935;-71
2021/06/30 06:20:15;;;;;;;0.57;0.57;;;17.00;99.90;;;;;;5014052;28;20218;-71
2021/06/30 06:22:40;;;;;;;2.67;0.50;;;17.00;99.90;;;;;;5013645;28;20198;-71
2021/06/30 06:25:07;;;;;;;0.40;0.40;;;16.90;99.90;;;;;;5013728;28;20467;-70
2021/06/30 06:27:34;;;;;;;1.30;0.50;;;16.80;99.90;;;;;;5014175;28;20586;-70
2021/06/30 06:29:59;;;;;;;1.73;0.60;;;16.80;99.90;;;;;;5014014;28;20779;-71
2021/06/30 06:32:25;;;;;;;0.50;0.50;;;16.90;99.90;;;;;;5007515;28;20470;-71
2021/06/30 06:34:51;;;;;;;2.20;0.50;;;17.10;99.90;;;;;;5012949;28;20205;-68
2021/06/30 06:37:18;;;;;;;2.50;0.83;;;17.20;99.90;;;;;;5011631;28;20209;-71
2021/06/30 06:39:44;;;;;;;1.67;0.60;;;17.40;99.90;;;;;;5014041;28;20402;-72
2021/06/30 06:42:12;;;;;;;0.60;0.60;;;17.40;99.90;;;;;;5013478;28;20429;-71
2021/06/30 06:44:39;;;;;;;1.53;0.53;;;17.50;99.90;;;;;;5010687;28;20802;-71
2021/06/30 06:47:04;;;;;;;0.57;0.50;;;17.90;99.90;;;;;;4993976;28;20422;-70
2021/06/30 06:49:30;;;;;;;4.13;0.60;;;18.50;99.90;;;;;;4994319;28;20425;-71
2021/06/30 06:51:58;;;;;;;2.10;0.50;;;19.30;99.90;;;;;;4994336;28;20243;-72
2021/06/30 06:54:23;;;;;;;0.67;0.50;;;19.60;99.90;;;;;;4994189;28;20203;-72
2021/06/30 06:56:49;;;;;;;0.50;0.40;;;19.70;99.90;;;;;;4993932;28;20461;-72
2021/06/30 06:59:14;;;;;;;0.50;0.50;;;19.80;99.90;;;;;;4993913;28;20175;-72
2021/06/30 07:01:40;;;;;;;1.47;0.40;;;19.70;99.90;;;;;;4976732;28;20900;-72
2021/06/30 07:04:05;;;;;;;2.27;0.50;;;19.60;99.90;;;;;;4976506;28;20199;-72
2021/06/30 07:06:31;;;;;;;0.50;0.50;;;19.40;99.90;;;;;;4993958;28;20180;-71
2021/06/30 07:08:56;;;;;;;0.53;0.40;;;19.30;99.90;;;;;;4994156;28;20175;-72
2021/06/30 07:11:22;;;;;;;0.50;0.40;;;19.20;99.90;;;;;;4994025;28;20201;-72
2021/06/30 07:13:48;;;;;;;4.93;0.50;;;19.30;99.90;;;;;;4993752;28;20556;-72
2021/06/30 07:16:14;;;;;;;0.57;0.53;;;19.30;99.90;;;;;;4993666;28;20234;-72
2021/06/30 07:18:39;;;;;;;0.50;0.50;;;19.10;99.90;;;;;;4993739;28;20168;-72
2021/06/30 07:21:06;;;;;;;0.50;0.40;;;18.90;99.90;;;;;;4992207;28;20435;-73
2021/06/30 07:23:31;;;;;;;2.60;0.50;;;18.70;99.90;;;;;;4993602;28;20184;-72
2021/06/30 07:25:58;;;;;;;1.50;0.50;;;18.80;99.90;;;;;;4993545;28;20421;-73
2021/06/30 07:28:24;;;;;;;0.60;0.40;;;18.90;99.90;;;;;;4993929;28;20183;-71
2021/06/30 07:30:50;;;;;;;0.90;0.60;;;18.80;99.90;;;;;;4996607;28;20485;-72
2021/06/30 07:33:16;;;;;;;0.50;0.40;;;18.60;99.90;;;;;;4994503;28;20469;-71
2021/06/30 07:35:42;;;;;;;0.97;0.40;;;18.70;99.90;;;;;;4993511;28;20610;-72
2021/06/30 07:38:08;;;;;;;1.00;0.63;;;18.70;99.90;;;;;;4993491;28;20254;-77
2021/06/30 07:40:34;;;;;;;0.90;0.50;;;18.70;99.90;;;;;;4993344;28;20410;-76
2021/06/30 07:43:00;;;;;;;0.50;0.40;;;18.70;99.90;;;;;;4993100;28;20227;-76
2021/06/30 07:45:26;;;;;;;0.50;0.50;;;18.70;99.90;;;;;;4992723;28;20446;-75
2021/06/30 07:47:52;;;;;;;0.77;0.40;;;18.70;99.90;;;;;;4992223;28;20175;-76
2021/06/30 07:50:18;;;;;;;0.40;0.40;;;18.70;99.90;;;;;;4991504;28;20430;-76
2021/06/30 07:52:45;;;;;;;0.50;0.40;;;18.80;99.90;;;;;;4992431;28;20210;-75
2021/06/30 07:55:12;;;;;;;0.50;0.50;;;18.80;99.90;;;;;;4993172;28;20772;-76
2021/06/30 07:57:38;;;;;;;0.50;0.40;;;19.20;99.90;;;;;;4993170;28;20788;-76
2021/06/30 08:00:06;;;;;;;0.70;0.40;;;19.50;99.90;;;;;;4993083;28;20418;-76
2021/06/30 08:02:35;;;;;;;0.40;0.40;;;19.80;99.90;;;;;;4975730;28;20446;-76
2021/06/30 08:05:02;;;;;;;0.47;0.40;;;20.20;99.90;;;;;;4992942;28;20498;-76
2021/06/30 08:07:27;;;;;;;0.80;0.40;;;20.30;99.90;;;;;;4993455;28;20417;-77
2021/06/30 08:09:53;;;;;;;0.50;0.40;;;20.40;99.90;;;;;;4993266;28;20410;-76
2021/06/30 08:12:19;;;;;;;1.60;0.63;;;20.60;99.90;;;;;;4992698;28;20673;-76
2021/06/30 08:14:45;;;;;;;0.50;0.40;;;20.80;99.90;;;;;;4992703;28;20266;-76
2021/06/30 08:17:10;;;;;;;0.50;0.40;;;20.60;99.90;;;;;;4975469;28;20183;-77
2021/06/30 08:19:36;;;;;;;0.40;0.33;;;20.60;99.90;;;;;;4992783;28;20934;-77
2021/06/30 08:22:02;;;;;;;0.40;0.30;;;20.50;99.90;;;;;;4992656;28;20698;-77
2021/06/30 08:24:28;;;;;;;1.57;0.50;;;20.50;99.90;;;;;;4992537;28;20175;-77
2021/06/30 08:26:55;;;;;;;1.40;0.40;;;20.50;99.90;;;;;;4992643;28;21003;-76
2021/06/30 08:29:23;;;;;;;0.40;0.30;;;20.30;99.90;;;;;;4992816;28;20610;-77
2021/06/30 08:31:48;;;;;;;1.37;0.40;;;20.10;99.90;;;;;;4992303;28;20850;-76
2021/06/30 08:34:14;;;;;;;0.80;0.40;;;19.40;99.90;;;;;;4992125;28;20771;-76
2021/06/30 08:36:40;;;;;;;0.60;0.40;;;19.20;99.90;;;;;;4975246;28;20207;-77
2021/06/30 08:39:08;;;;;;;0.97;0.40;;;19.00;99.90;;;;;;4992245;28;20172;-77
2021/06/30 08:41:33;;;;;;;0.60;0.40;;;18.90;99.90;;;;;;4992324;28;20234;-76
2021/06/30 08:43:59;;;;;;;0.40;0.30;;;18.60;99.90;;;;;;4991931;28;20515;-76
2021/06/30 08:46:26;;;;;;;0.40;0.40;;;18.70;99.90;;;;;;4992393;28;20171;-77
2021/06/30 08:48:55;;;;;;;3.07;0.37;;;18.60;99.90;;;;;;4974805;28;20179;-77
2021/06/30 08:51:23;;;;;;;1.70;0.40;;;18.70;99.90;;;;;;4992265;28;20939;-77
2021/06/30 08:53:50;;;;;;;0.50;0.40;;;19.00;99.90;;;;;;4991950;28;20931;-77
2021/06/30 08:56:19;;;;;;;0.43;0.40;;;19.10;99.90;;;;;;4992433;28;20416;-77
2021/06/30 08:58:46;;;;;;;0.97;0.40;;;19.50;99.90;;;;;;4991978;28;20777;-77
2021/06/30 09:01:12;;;;;;;3.70;0.40;;;19.80;99.90;;;;;;4992210;28;20474;-77
2021/06/30 09:03:44;;;;;;;0.50;0.40;;;20.20;99.90;;;;;;4992261;28;20411;-77
2021/06/30 09:06:13;;;;;;;0.40;0.40;;;20.30;99.90;;;;;;4992176;28;20227;-77
2021/06/30 09:08:48;;;;;;;0.40;0.40;;;19.90;99.90;;;;;;4991891;28;20407;-77
2021/06/30 09:11:22;;;;;;;0.40;0.40;;;20.00;99.90;;;;;;4990972;28;20800;-77
2021/06/30 09:13:49;;;;;;;0.50;0.40;;;19.80;99.90;;;;;;4992151;28;21024;-77
2021/06/30 09:16:15;;;;;;;0.50;0.40;;;19.50;99.90;;;;;;4992324;28;20908;-77
2021/06/30 09:18:41;;;;;;;1.50;0.57;;;19.20;99.90;;;;;;4992045;28;20987;-77
2021/06/30 09:21:16;;;;;;;0.50;0.40;;;19.10;99.90;;;;;;4991825;28;20426;-76
2021/06/30 09:24:00;;;;;;;1.50;0.40;;;19.00;99.90;;;;;;4992341;28;20432;-77
2021/06/30 09:26:28;;;;;;;0.43;0.43;;;19.20;99.90;;;;;;4992065;28;20470;-77
2021/06/30 09:29:10;;;;;;;1.13;0.40;;;19.20;99.90;;;;;;4992217;28;20466;-76
2021/06/30 09:31:38;;;;;;;0.77;0.43;;;19.60;99.90;;;;;;4991854;28;20839;-76
2021/06/30 09:34:04;;;;;;;0.50;0.50;;;19.80;99.90;;;;;;4991529;28;20955;-76
2021/06/30 09:36:42;;;;;;;0.40;0.40;;;20.40;99.90;;;;;;4992076;28;20834;-77
2021/06/30 09:39:09;;;;;;;0.50;0.40;;;21.20;99.90;;;;;;4991812;28;20418;-77
2021/06/30 09:41:38;;;;;;;0.40;0.40;;;22.10;99.90;;;;;;4991760;28;20437;-77
2021/06/30 09:44:05;;;;;;;0.50;0.40;;;22.90;99.90;;;;;;4974216;28;20427;-77
2021/06/30 09:46:31;;;;;;;0.50;0.40;;;23.00;99.90;;;;;;4995609;28;20497;-77
2021/06/30 09:49:02;;;;;;;1.63;0.40;;;22.30;99.90;;;;;;4978119;28;20434;-77
2021/06/30 09:51:28;;;;;;;1.63;0.40;;;22.00;99.90;;;;;;4995848;28;20841;-77
2021/06/30 09:54:05;;;;;;;2.30;0.63;;;21.50;99.90;;;;;;4995186;28;20462;-77
2021/06/30 09:56:34;;;;;;;0.40;0.40;;;21.10;99.90;;;;;;4995858;28;20416;-77
2021/06/30 09:59:00;;;;;;;1.13;0.40;;;20.70;99.90;;;;;;4995234;28;20517;-77
2021/06/30 10:01:26;;;;;;;2.40;0.50;;;20.10;99.90;;;;;;4995344;28;20453;-77
2021/06/30 10:03:52;;;;;;;0.60;0.30;;;19.50;99.90;;;;;;4995151;28;20952;-77
2021/06/30 10:06:25;;;;;;;0.60;0.60;;;19.30;99.90;;;;;;5000492;28;20186;-77
2021/06/30 10:08:51;;;;;;;1.43;0.40;;;19.30;99.90;;;;;;4985264;28;20472;-77
2021/06/30 10:11:16;;;;;;;0.40;0.40;;;19.70;99.90;;;;;;4996051;28;20430;-78
2021/06/30 10:13:42;;;;;;;1.87;0.40;;;20.90;99.90;;;;;;4994963;28;20314;-77
2021/06/30 10:16:08;;;;;;;0.40;0.40;;;22.10;99.90;;;;;;4977561;28;20186;-78
2021/06/30 10:18:34;;;;;;;0.40;0.33;;;22.30;99.90;;;;;;4995270;28;20538;-78
2021/06/30 10:21:00;;;;;;;0.50;0.40;;;22.40;99.90;;;;;;4994914;28;20509;-77
2021/06/30 10:23:29;;;;;;;0.40;0.40;;;22.30;99.90;;;;;;4977306;28;20184;-78
2021/06/30 10:25:55;;;;;;;0.63;0.40;;;22.30;99.90;;;;;;4994812;28;20190;-77
2021/06/30 10:28:22;;;;;;;0.50;0.50;;;22.20;99.90;;;;;;4994867;28;20426;-77
2021/06/30 10:30:53;;;;;;;0.40;0.40;;;22.90;99.90;;;;;;4994942;28;20834;-75
2021/06/30 10:33:29;;;;;;;0.40;0.40;;;23.00;99.90;;;;;;4994415;28;20466;-75
2021/06/30 10:35:55;;;;;;;0.40;0.30;;;23.00;99.90;;;;;;4994560;28;20407;-74
2021/06/30 10:38:20;;;;;;;1.17;0.40;;;22.80;99.90;;;;;;4994549;28;20469;-77
2021/06/30 10:40:46;;;;;;;0.77;0.50;;;22.40;99.90;;;;;;4994389;28;20259;-74
2021/06/30 10:43:13;;;;;;;0.60;0.53;;;22.60;99.90;;;;;;4994106;28;20269;-75
2021/06/30 10:45:40;;;;;;;0.40;0.40;;;23.60;99.90;;;;;;4994304;28;20171;-75
2021/06/30 10:48:07;;;;;;;0.43;0.40;;;24.30;99.90;;;;;;4994151;28;20911;-75
2021/06/30 10:50:56;;;;;;;0.40;0.40;;;24.20;99.90;;;;;;4994276;28;20422;-75
2021/06/30 10:53:29;;;;;;;0.50;0.40;;;23.80;99.90;;;;;;4993964;28;20462;-75
2021/06/30 10:55:59;;;;;;;1.77;0.40;;;23.20;99.90;;;;;;4993820;28;20406;-74
2021/06/30 10:58:27;;;;;;;0.70;0.40;;;22.20;99.90;;;;;;4992899;28;20411;-74
2021/06/30 11:00:58;;;;;;;1.33;0.40;;;21.70;99.90;;;;;;4993887;28;20407;-74
2021/06/30 11:03:33;;;;;;;2.10;0.40;;;21.10;99.90;;;;;;4993812;28;20790;-75
2021/06/30 11:06:16;;;;;;;1.00;0.50;;;20.50;99.90;;;;;;4976458;28;20458;-76
2021/06/30 11:09:04;;;;;;;0.40;0.40;;;20.20;99.90;;;;;;4994023;28;20445;-76
2021/06/30 11:11:32;;;;;;;0.60;0.40;;;19.70;99.90;;;;;;4994278;28;20439;-76
2021/06/30 11:14:12;;;;;;;1.20;0.50;;;19.70;99.90;;;;;;4993817;28;20966;-76
2021/06/30 11:16:41;;;;;;;0.70;0.70;;;19.80;99.90;;;;;;4976319;28;20515;-76
2021/06/30 11:19:16;;;;;;;0.40;0.40;;;19.80;99.90;;;;;;4993510;28;20414;-77
2021/06/30 11:21:44;;;;;;;1.00;0.50;;;20.20;99.90;;;;;;4993657;28;20512;-76
2021/06/30 11:24:39;;;;;;;0.50;0.40;;;20.80;99.90;;;;;;4993359;28;20836;-76
2021/06/30 11:27:19;;;;;;;1.57;0.40;;;21.40;99.90;;;;;;4993425;28;20429;-75
2021/06/30 11:29:51;;;;;;;1.37;0.60;;;21.70;99.90;;;;;;4993535;28;20414;-76
2021/06/30 11:34:58;;;;;;;0.57;0.57;;;22.00;99.90;;;;;;4992988;28;21055;-75
2021/06/30 11:37:26;;;;;;;0.50;0.50;;;22.10;99.90;;;;;;4993518;28;20421;-76
2021/06/30 11:39:56;;;;;;;0.50;0.50;;;22.00;99.90;;;;;;4992987;28;20497;-76
2021/06/30 11:42:39;;;;;;;1.73;0.50;;;21.80;99.90;;;;;;4993506;28;20497;-76
2021/06/30 11:45:26;;;;;;;0.50;0.50;;;21.70;99.90;;;;;;4993166;28;20945;-75
2021/06/30 11:47:54;;;;;;;0.50;0.50;;;21.60;99.90;;;;;;4993218;28;20951;-76
2021/06/30 11:50:29;;;;;;;0.50;0.50;;;21.50;99.90;;;;;;4993093;28;20485;-76
2021/06/30 11:52:55;;;;;;;0.70;0.43;;;21.60;99.90;;;;;;4993613;28;20946;-78
2021/06/30 11:55:21;;;;;;;0.50;0.50;;;21.50;99.90;;;;;;4993684;28;20430;-77
2021/06/30 11:58:01;;;;;;;4.03;0.60;;;21.40;99.90;;;;;;4993341;28;20946;-77
2021/06/30 12:00:29;;;;;;;0.73;0.50;;;20.90;99.90;;;;;;4993675;28;20662;-78
2021/06/30 12:02:58;;;;;;;1.70;0.80;;;20.30;99.90;;;;;;4993594;28;20918;-77
2021/06/30 12:05:29;;;;;;;0.87;0.50;;;19.90;99.90;;;;;;4993701;28;20418;-78
2021/06/30 12:07:56;;;;;;;0.90;0.50;;;19.80;99.90;;;;;;4993670;28;20778;-78
2021/06/30 12:10:30;;;;;;;0.60;0.57;;;19.80;99.90;;;;;;4994577;28;20415;-78
2021/06/30 12:12:57;;;;;;;0.97;0.50;;;20.00;99.90;;;;;;4994264;28;20434;-78
2021/06/30 12:15:24;;;;;;;1.33;0.63;;;20.20;99.90;;;;;;4996154;28;20426;-78
2021/06/30 12:17:52;;;;;;;0.70;0.50;;;20.20;99.90;;;;;;4994719;28;20939;-78
2021/06/30 12:20:20;;;;;;;0.57;0.57;;;20.40;99.90;;;;;;4993218;28;20446;-76
2021/06/30 12:22:46;;;;;;;0.50;0.50;;;20.20;99.90;;;;;;4992554;28;20446;-75
2021/06/30 12:25:23;;;;;;;2.03;1.07;;;20.10;99.90;;;;;;4994104;28;20428;-75
2021/06/30 12:27:55;;;;;;;0.70;0.60;;;20.20;99.90;;;;;;4994676;28;20426;-77
2021/06/30 12:30:24;;;;;;;2.30;0.50;;;20.40;99.90;;;;;;4992373;28;20926;-76
2021/06/30 12:32:55;;;;;;;1.07;0.60;;;20.50;99.90;;;;;;4992376;28;20458;-76
2021/06/30 12:35:24;;;;;;;4.33;0.50;;;20.40;99.90;;;;;;4993040;28;20411;-77
2021/06/30 12:37:58;;;;;;;1.07;0.47;;;20.20;99.90;;;;;;4993643;28;20406;-76
2021/06/30 12:40:24;;;;;;;0.87;0.40;;;20.10;99.90;;;;;;4993436;28;20572;-78
2021/06/30 12:42:49;;;;;;;1.57;0.53;;;20.00;99.90;;;;;;4993243;28;20474;-78
2021/06/30 12:45:20;;;;;;;0.70;0.70;;;19.70;99.90;;;;;;5000644;28;20802;-77
2021/06/30 12:47:55;;;;;;;0.53;0.50;;;19.80;99.90;;;;;;5000640;28;20298;-76
2021/06/30 12:50:48;;;;;;;0.50;0.50;;;20.00;99.90;;;;;;4998989;28;20430;-76
2021/06/30 12:53:36;;;;;;;0.40;0.40;;;20.20;99.90;;;;;;4993111;28;20506;-76
2021/06/30 12:56:06;;;;;;;0.60;0.50;;;20.20;99.90;;;;;;4995884;28;20410;-76
2021/06/30 12:58:47;;;;;;;0.70;0.60;;;20.40;99.90;;;;;;4992548;28;20458;-77
2021/06/30 13:01:24;;;;;;;0.50;0.40;;;20.60;99.90;;;;;;4992061;28;20608;-77
2021/06/30 13:03:52;;;;;;;0.60;0.43;;;20.60;99.90;;;;;;4992088;28;20465;-77
2021/06/30 13:06:23;;;;;;;0.50;0.40;;;20.70;99.90;;;;;;4992195;28;20419;-76
2021/06/30 13:09:03;;;;;;;0.60;0.40;;;20.70;99.90;;;;;;4992037;28;20410;-77
2021/06/30 13:11:37;;;;;;;0.60;0.60;;;20.90;99.90;;;;;;4992034;28;20447;-77
2021/06/30 13:14:05;;;;;;;1.70;0.50;;;21.00;99.90;;;;;;4991689;28;20476;-77
2021/06/30 13:16:48;;;;;;;1.53;0.40;;;21.00;99.90;;;;;;4974746;28;20823;-77
2021/06/30 13:19:16;;;;;;;0.70;0.50;;;20.90;99.90;;;;;;4993991;28;20493;-76
2021/06/30 13:21:52;;;;;;;0.70;0.53;;;20.80;99.90;;;;;;4996175;28;20854;-77
2021/06/30 13:25:03;;;;;;;1.43;0.60;;;20.70;99.90;;;;;;4995751;28;20422;-77
2021/06/30 13:35:44;;;;;;;3.80;0.50;;;20.00;99.90;;;;;;4996321;28;20421;-77
2021/06/30 13:38:36;;;;;;;0.50;0.50;;;19.90;99.90;;;;;;4996782;28;20418;-77
2021/06/30 13:41:09;;;;;;;1.73;0.73;;;19.70;99.90;;;;;;4995502;28;20466;-77
2021/06/30 13:43:34;;;;;;;1.30;0.60;;;19.60;99.90;;;;;;4995569;28;20861;-77
2021/06/30 13:46:05;;;;;;;1.37;0.50;;;19.40;99.90;;;;;;4995327;28;20481;-76
2021/06/30 13:48:32;;;;;;;0.80;0.50;;;19.20;99.90;;;;;;4995661;28;20203;-76
2021/06/30 13:51:03;;;;;;;1.43;0.60;;;19.00;99.90;;;;;;4995310;28;20441;-76
2021/06/30 13:53:31;;;;;;;1.70;0.60;;;18.90;99.90;;;;;;4995279;28;20466;-76
2021/06/30 13:56:00;;;;;;;1.10;0.70;;;18.70;99.90;;;;;;4995246;28;20454;-77
2021/06/30 13:58:26;;;;;;;3.33;0.80;;;18.80;99.90;;;;;;4977797;28;20427;-77
2021/06/30 14:00:52;;;;;;;1.00;0.83;;;18.90;99.90;;;;;;4995220;28;20410;-77
2021/06/30 14:03:18;;;;;;;0.60;0.60;;;19.00;99.90;;;;;;4995003;28;20414;-77
2021/06/30 14:05:43;;;;;;;1.60;0.83;;;19.00;99.90;;;;;;4995143;28;20441;-77
2021/06/30 14:08:13;;;;;;;0.93;0.50;;;19.20;99.90;;;;;;4995139;28;20187;-77
2021/06/30 14:10:46;;;;;;;0.63;0.50;;;19.40;99.90;;;;;;4995611;28;20553;-75
2021/06/30 14:13:13;;;;;;;1.47;0.60;;;19.40;99.90;;;;;;4994835;28;20843;-77
2021/06/30 14:15:38;;;;;;;1.00;0.60;;;19.60;99.90;;;;;;4995393;28;20415;-76
2021/06/30 14:18:08;;;;;;;2.70;0.67;;;19.60;99.90;;;;;;4995120;28;20419;-77
2021/06/30 14:20:34;;;;;;;0.80;0.60;;;19.80;99.90;;;;;;4995126;28;20546;-77
2021/06/30 14:23:04;;;;;;;2.50;0.50;;;20.00;99.90;;;;;;4977558;28;20979;-77
2021/06/30 14:25:30;;;;;;;0.50;0.50;;;20.00;99.90;;;;;;4994907;28;20434;-77
2021/06/30 14:27:55;;;;;;;3.00;0.60;;;20.10;99.90;;;;;;4994700;28;20415;-77
2021/06/30 14:30:21;;;;;;;0.50;0.50;;;20.10;99.90;;;;;;4994354;28;20218;-77
2021/06/30 14:32:47;;;;;;;0.80;0.50;;;20.10;99.90;;;;;;4995937;28;20222;-76
2021/06/30 14:35:14;;;;;;;1.23;1.10;;;20.10;99.90;;;;;;4995880;28;20270;-76
2021/06/30 14:37:40;;;;;;;1.03;0.60;;;20.10;99.90;;;;;;4995410;28;20430;-76
2021/06/30 14:40:08;;;;;;;0.80;0.50;;;20.10;99.90;;;;;;4995506;28;20411;-77
2021/06/30 14:42:34;;;;;;;0.60;0.60;;;19.90;99.90;;;;;;4995173;28;20441;-77
2021/06/30 14:45:00;;;;;;;0.50;0.50;;;19.80;99.90;;;;;;4977939;28;20867;-77
2021/06/30 14:47:25;;;;;;;1.53;0.80;;;19.90;99.90;;;;;;4995285;28;20192;-77
2021/06/30 14:49:51;;;;;;;0.50;0.50;;;19.90;99.90;;;;;;4994452;28;20217;-77
2021/06/30 14:52:17;;;;;;;2.60;0.63;;;19.80;99.90;;;;;;4994341;28;20209;-77
2021/06/30 14:54:44;;;;;;;0.47;0.40;;;19.90;99.90;;;;;;4994449;28;20207;-77
2021/06/30 14:57:10;;;;;;;0.50;0.50;;;19.90;99.90;;;;;;4994382;28;21013;-77
2021/06/30 14:59:37;;;;;;;2.10;0.43;;;20.00;99.90;;;;;;4994204;28;20418;-76
2021/06/30 15:02:03;;;;;;;1.13;0.40;;;20.00;99.90;;;;;;4993746;28;20954;-76
2021/06/30 15:04:29;;;;;;;1.40;0.80;;;20.00;99.90;;;;;;4993831;28;20426;-76
2021/06/30 15:06:55;;;;;;;0.50;0.47;;;19.90;99.90;;;;;;4976520;28;20422;-77
2021/06/30 15:09:21;;;;;;;0.50;0.50;;;19.80;99.90;;;;;;4993677;28;20195;-76
2021/06/30 15:11:46;;;;;;;1.90;0.50;;;19.70;99.90;;;;;;4993837;28;20282;-77
2021/06/30 15:14:12;;;;;;;1.00;0.50;;;19.80;99.90;;;;;;4993298;28;21043;-77
2021/06/30 15:16:38;;;;;;;0.50;0.50;;;19.90;99.90;;;;;;4993783;28;20302;-77
2021/06/30 15:19:06;;;;;;;0.50;0.40;;;20.00;99.90;;;;;;4993337;28;20191;-77
2021/06/30 15:21:33;;;;;;;1.10;0.50;;;20.00;99.90;;;;;;4993940;28;20441;-76
2021/06/30 15:23:59;;;;;;;0.70;0.70;;;19.90;99.90;;;;;;4996966;28;20426;-76
2021/06/30 15:26:24;;;;;;;0.90;0.50;;;19.60;99.90;;;;;;5000519;28;20419;-77
2021/06/30 15:28:51;;;;;;;1.13;0.70;;;19.40;99.90;;;;;;4981494;28;20441;-76
2021/06/30 15:31:17;;;;;;;1.27;0.53;;;19.00;99.90;;;;;;4977123;28;20711;-76
2021/06/30 15:33:43;;;;;;;3.23;0.47;;;18.80;99.90;;;;;;4993271;28;20465;-77
2021/06/30 15:36:09;;;;;;;0.70;0.50;;;18.60;99.90;;;;;;4993442;28;20186;-76
2021/06/30 15:38:34;;;;;;;0.90;0.50;;;18.70;99.90;;;;;;4993655;28;20415;-77
2021/06/30 15:41:01;;;;;;;0.50;0.50;;;18.60;99.90;;;;;;4993334;28;20202;-76
2021/06/30 15:43:28;;;;;;;0.93;0.60;;;18.70;99.90;;;;;;4997547;28;20687;-77
2021/06/30 15:45:54;;;;;;;0.60;0.50;;;18.70;99.90;;;;;;5013749;28;20420;-78
2021/06/30 15:48:20;;;;;;;0.60;0.57;;;18.70;99.90;;;;;;5013310;28;20433;-76
2021/06/30 15:50:46;;;;;;;1.37;0.80;;;18.60;99.90;;;;;;5014203;28;20418;-76
2021/06/30 15:53:12;;;;;;;0.50;0.50;;;18.70;99.90;;;;;;5013362;28;21190;-77
2021/06/30 15:55:39;;;;;;;0.50;0.47;;;18.60;99.90;;;;;;5012939;28;20242;-76
2021/06/30 15:58:06;;;;;;;4.10;0.40;;;18.60;99.90;;;;;;5013286;28;20201;-77
2021/06/30 16:00:32;;;;;;;0.60;0.50;;;18.60;99.90;;;;;;5013790;28;20418;-77
2021/06/30 16:02:57;;;;;;;0.50;0.50;;;18.50;99.90;;;;;;5012627;28;20429;-76
2021/06/30 16:05:24;;;;;;;0.43;0.43;;;18.50;99.90;;;;;;5012916;28;20968;-76
2021/06/30 16:07:50;;;;;;;1.00;0.50;;;18.50;99.90;;;;;;5012818;28;20174;-76
2021/06/30 16:10:17;;;;;;;0.50;0.50;;;18.60;99.90;;;;;;5012702;28;20424;-77
2021/06/30 16:12:44;;;;;;;0.87;0.50;;;18.60;99.90;;;;;;5012437;28;20201;-74
2021/06/30 16:15:15;;;;;;;0.50;0.40;;;18.70;99.90;;;;;;5012299;28;20465;-76
2021/06/30 16:17:42;;;;;;;0.50;0.50;;;18.80;99.90;;;;;;5012495;28;20444;-77
2021/06/30 16:20:09;;;;;;;0.57;0.57;;;18.80;99.90;;;;;;5012377;28;20775;-76
2021/06/30 16:22:35;;;;;;;0.70;0.50;;;18.80;99.90;;;;;;5011282;28;20445;-74
2021/06/30 16:25:00;;;;;;;0.50;0.40;;;18.70;99.90;;;;;;5012178;28;20906;-76
2021/06/30 16:27:26;;;;;;;0.60;0.60;;;18.70;99.90;;;;;;5012840;28;20548;-76
2021/06/30 16:29:51;;;;;;;0.50;0.50;;;18.70;99.90;;;;;;5012629;28;20186;-76
2021/06/30 16:32:17;;;;;;;1.10;0.50;;;18.70;99.90;;;;;;5011913;28;20261;-76
2021/06/30 16:34:42;;;;;;;0.50;0.50;;;18.60;99.90;;;;;;5012323;28;20257;-76
2021/06/30 16:37:08;;;;;;;0.60;0.60;;;18.40;99.90;;;;;;5012790;28;20201;-76
2021/06/30 16:39:34;;;;;;;5.20;1.30;;;18.40;99.90;;;;;;5012186;28;20237;-76
2021/06/30 16:41:59;;;;;;;0.97;0.60;;;18.30;99.90;;;;;;5011925;28;20197;-76
2021/06/30 16:44:25;;;;;;;0.50;0.50;;;18.20;99.90;;;;;;5012224;28;20416;-76
2021/06/30 16:46:51;;;;;;;0.70;0.40;;;18.20;99.90;;;;;;5012178;28;20210;-76
2021/06/30 16:49:16;;;;;;;0.50;0.50;;;18.30;99.90;;;;;;5012155;28;20201;-76
2021/06/30 16:51:42;;;;;;;0.60;0.50;;;18.20;99.90;;;;;;5010916;28;20328;-76
2021/06/30 16:54:09;;;;;;;0.60;0.50;;;18.20;99.90;;;;;;5011140;28;20209;-76
2021/06/30 16:56:34;;;;;;;0.50;0.50;;;18.00;99.90;;;;;;5011811;28;20521;-76
2021/06/30 16:59:02;;;;;;;0.87;0.50;;;18.00;99.90;;;;;;5011773;28;20418;-75
2021/06/30 17:01:28;;;;;;;0.90;0.70;;;18.00;99.90;;;;;;5011788;28;20638;-76
2021/06/30 17:03:57;;;;;;;2.20;0.57;;;18.00;99.90;;;;;;5011588;28;20413;-77
2021/06/30 17:06:28;;;;;;;0.70;0.70;;;18.00;99.90;;;;;;5011964;28;20421;-76
2021/06/30 17:08:54;;;;;;;0.50;0.40;;;17.90;99.90;;;;;;5011750;28;20751;-77
2021/06/30 17:11:20;;;;;;;1.20;0.80;;;17.90;99.90;;;;;;5010462;28;20442;-77
2021/06/30 17:13:46;;;;;;;1.90;0.60;;;17.90;99.90;;;;;;5011566;28;20464;-77
2021/06/30 17:16:13;;;;;;;0.50;0.50;;;17.90;99.90;;;;;;5011700;28;20429;-77
2021/06/30 17:18:39;;;;;;;3.13;0.50;;;17.90;99.90;;;;;;5011706;28;20187;-77
2021/06/30 17:21:06;;;;;;;0.87;0.60;;;17.80;99.90;;;;;;5011543;28;20434;-77
2021/06/30 17:23:32;;;;;;;1.67;0.50;;;17.80;99.90;;;;;;5011445;28;20413;-77
2021/06/30 17:25:59;;;;;;;1.27;0.50;;;17.80;99.90;;;;;;5011748;28;20516;-77
2021/06/30 17:28:25;;;;;;;1.53;0.50;;;17.80;99.90;;;;;;5011673;28;20551;-77
2021/06/30 17:30:53;;;;;;;0.80;0.50;;;17.80;99.90;;;;;;5011479;28;20418;-76
2021/06/30 17:33:19;;;;;;;2.83;0.80;;;17.70;99.90;;;;;;5011538;28;20192;-77